Time;durP1;ratioP1;P1;durP2;ratioP2;P2;SDS_P1;SDS_P2;PMS_P1;PMS_P2;Temp;Humidity;BMP_temperature;BMP_pressure;BME280_temperature;BME280_humidity;BME280_pressure;Samples;Min_cycle;Max_cycle;Signal;HPM_P1;HPM_P2
2023/12/05 00:00:22;;;;;;;33.60;17.70;;;;;;;6.16;42.90;100874.98;108249;1263;69096;-88
2023/12/05 00:02:50;;;;;;;29.10;15.80;;;;;;;6.05;42.93;100876.45;108442;1258;71084;-87
2023/12/05 00:05:21;;;;;;;30.90;16.00;;;;;;;6.04;42.97;100875.77;107727;1257;60470;-88
2023/12/05 00:07:51;;;;;;;36.00;17.20;;;;;;;6.03;42.91;100874.54;107788;1257;60071;-88
2023/12/05 00:10:19;;;;;;;35.30;16.20;;;;;;;5.98;43.11;100872.48;107767;1261;74467;-89
2023/12/05 00:12:47;;;;;;;32.70;16.10;;;;;;;6.05;42.88;100869.48;107758;1258;69501;-87
2023/12/05 00:15:14;;;;;;;30.50;15.30;;;;;;;6.18;42.68;100870.09;107761;1261;71182;-89
2023/12/05 00:17:42;;;;;;;32.00;16.70;;;;;;;6.26;42.53;100873.70;107765;1263;60513;-88
2023/12/05 00:20:10;;;;;;;32.90;16.90;;;;;;;6.34;42.26;100879.56;107820;1257;60610;-86
2023/12/05 00:22:38;;;;;;;28.40;15.60;;;;;;;6.28;42.21;100877.00;107824;1257;72003;-88
2023/12/05 00:25:07;;;;;;;25.60;14.70;;;;;;;6.18;42.55;100876.55;107815;1257;69330;-88
2023/12/05 00:27:37;;;;;;;35.70;17.10;;;;;;;6.12;42.32;100875.54;107758;1260;71770;-87
2023/12/05 00:30:05;;;;;;;29.60;15.30;;;;;;;6.07;42.50;100876.79;107763;1257;60140;-87
2023/12/05 00:32:33;;;;;;;32.90;16.30;;;;;;;5.97;42.79;100878.58;107705;1257;60342;-85
2023/12/05 00:35:01;;;;;;;27.30;14.50;;;;;;;5.97;42.51;100875.28;108484;1257;73824;-88
2023/12/05 00:37:29;;;;;;;29.20;14.70;;;;;;;5.97;42.40;100882.77;107867;1257;69085;-87
2023/12/05 00:39:56;;;;;;;26.50;11.40;;;;;;;5.80;42.97;100888.77;107954;1258;72782;-88
2023/12/05 00:42:24;;;;;;;29.00;13.60;;;;;;;5.54;42.98;100891.68;107906;1261;60431;-90
2023/12/05 00:44:53;;;;;;;25.20;12.80;;;;;;;5.47;42.97;100892.92;107840;1257;60492;-88
2023/12/05 00:47:22;;;;;;;25.20;12.90;;;;;;;5.46;42.69;100888.92;108638;1256;71290;-86
2023/12/05 00:49:51;;;;;;;26.70;13.00;;;;;;;5.43;42.53;100889.29;108531;1263;69088;-88
2023/12/05 00:52:19;;;;;;;26.90;13.10;;;;;;;5.42;42.56;100894.17;107747;1260;72694;-88
2023/12/05 00:54:47;;;;;;;25.70;13.40;;;;;;;5.29;42.57;100897.35;107982;1257;60536;-87
2023/12/05 00:57:14;;;;;;;20.70;11.70;;;;;;;5.17;42.69;100898.95;107821;1258;59219;-87
2023/12/05 00:59:42;;;;;;;25.20;14.00;;;;;;;5.16;42.62;100896.52;107799;1257;72391;-89
2023/12/05 01:02:10;;;;;;;24.80;12.10;;;;;;;5.12;42.86;100899.30;107751;1257;68758;-89
2023/12/05 01:04:38;;;;;;;27.00;13.90;;;;;;;5.13;42.94;100901.05;107796;1261;71912;-87
2023/12/05 01:07:05;;;;;;;24.30;13.40;;;;;;;5.21;42.66;100898.93;107656;1257;60759;-86
2023/12/05 01:09:33;;;;;;;24.50;13.20;;;;;;;5.22;42.56;100896.33;107692;1258;60062;-88
2023/12/05 01:12:01;;;;;;;30.20;14.30;;;;;;;5.19;42.63;100901.02;107778;1257;72892;-87
2023/12/05 01:14:28;;;;;;;23.90;13.50;;;;;;;5.09;42.82;100901.41;107807;1263;69434;-88
2023/12/05 01:16:57;;;;;;;30.60;14.40;;;;;;;5.12;42.73;100903.48;107827;1257;71422;-86
2023/12/05 01:19:25;;;;;;;29.70;14.20;;;;;;;5.11;42.67;100905.05;107955;1261;62522;-87
2023/12/05 01:21:53;;;;;;;31.00;14.40;;;;;;;4.96;42.84;100913.25;107869;1257;60342;-86
2023/12/05 01:24:21;;;;;;;29.30;14.20;;;;;;;4.93;42.79;100915.36;107820;1257;72707;-86
2023/12/05 01:26:48;;;;;;;23.00;12.30;;;;;;;4.73;43.25;100921.81;107956;1262;68669;-88
2023/12/05 01:29:17;;;;;;;24.50;13.80;;;;;;;4.64;43.41;100919.38;107825;1258;72765;-88
2023/12/05 01:31:45;;;;;;;25.00;13.30;;;;;;;4.63;43.49;100921.13;107804;1258;60542;-87
2023/12/05 01:34:14;;;;;;;23.50;12.10;;;;;;;4.61;43.38;100920.42;107818;1256;60320;-89
2023/12/05 01:36:42;;;;;;;25.40;13.40;;;;;;;4.64;43.29;100923.90;107845;1256;72664;-88
2023/12/05 01:39:14;;;;;;;22.40;12.70;;;;;;;4.58;43.54;100920.42;108029;1257;69429;-89
2023/12/05 01:41:44;;;;;;;26.20;12.60;;;;;;;4.51;43.65;100918.33;107815;1258;72330;-88
2023/12/05 01:44:11;;;;;;;28.10;13.50;;;;;;;4.47;43.67;100918.33;107697;1256;60689;-89
2023/12/05 01:46:40;;;;;;;26.60;12.80;;;;;;;4.46;44.02;100915.20;108075;1257;60343;-88
2023/12/05 01:49:07;;;;;;;29.70;14.60;;;;;;;4.50;43.94;100913.46;108527;1256;73891;-89
2023/12/05 01:51:45;;;;;;;30.60;14.20;;;;;;;4.54;43.84;100915.72;108673;1258;68798;-88
2023/12/05 01:54:12;;;;;;;25.20;13.30;;;;;;;4.45;43.78;100919.38;108789;1256;71179;-88
2023/12/05 01:56:40;;;;;;;26.10;13.40;;;;;;;4.50;43.82;100919.71;109037;1256;60573;-89
2023/12/05 01:59:08;;;;;;;23.50;11.70;;;;;;;4.53;43.64;100919.03;108466;1257;59512;-89
2023/12/05 02:01:36;;;;;;;30.80;15.00;;;;;;;4.37;44.12;100921.10;107836;1257;72651;-88
2023/12/05 02:04:04;;;;;;;29.60;14.60;;;;;;;4.40;44.32;100916.23;107684;1257;70941;-89
2023/12/05 02:06:35;;;;;;;27.80;13.80;;;;;;;4.30;44.27;100914.84;107809;1260;71456;-89
2023/12/05 02:09:03;;;;;;;29.80;15.20;;;;;;;4.37;44.34;100913.28;107760;1257;61242;-88
2023/12/05 02:11:32;;;;;;;28.00;15.30;;;;;;;4.39;44.28;100913.11;107707;1256;60210;-88
2023/12/05 02:14:00;;;;;;;28.20;15.00;;;;;;;4.27;44.47;100911.19;107807;1256;73964;-87
2023/12/05 02:16:40;;;;;;;31.90;16.40;;;;;;;4.22;44.45;100915.52;107863;1257;69359;-89
2023/12/05 02:19:56;;;;;;;30.90;14.70;;;;;;;4.16;44.64;100915.69;107764;1257;72123;-86
2023/12/05 02:23:01;;;;;;;28.40;14.00;;;;;;;4.13;44.52;100909.61;107631;1261;60470;-88
2023/12/05 02:25:58;;;;;;;31.90;17.30;;;;;;;4.05;44.93;100911.14;107834;1256;59155;-89
2023/12/05 02:28:26;;;;;;;35.70;17.30;;;;;;;4.12;44.52;100909.77;107809;1257;72686;-87
2023/12/05 02:30:54;;;;;;;36.80;16.70;;;;;;;4.00;44.55;100917.05;107694;1263;70083;-88
2023/12/05 02:33:24;;;;;;;36.90;18.40;;;;;;;4.02;44.45;100921.73;107846;1257;71716;-88
2023/12/05 02:35:58;;;;;;;36.40;18.10;;;;;;;3.99;44.48;100921.56;107929;1256;60622;-85
2023/12/05 02:38:56;;;;;;;29.10;14.00;;;;;;;4.08;44.27;100921.40;107940;1257;60320;-84
2023/12/05 02:41:26;;;;;;;32.90;15.90;;;;;;;4.03;44.29;100921.05;107906;1257;72647;-87
2023/12/05 02:44:14;;;;;;;35.40;16.60;;;;;;;3.99;44.29;100920.85;107934;1256;69985;-89
2023/12/05 02:46:42;;;;;;;31.40;16.00;;;;;;;3.94;44.27;100920.85;108611;1257;72508;-88
2023/12/05 02:49:10;;;;;;;37.40;17.90;;;;;;;3.91;44.27;100920.16;108677;1256;62791;-89
2023/12/05 02:51:38;;;;;;;35.60;17.90;;;;;;;3.94;44.27;100920.85;108743;1257;60226;-86
2023/12/05 02:54:08;;;;;;;35.20;18.10;;;;;;;3.92;44.31;100921.72;108745;1257;73159;-87
2023/12/05 02:56:40;;;;;;;41.80;19.30;;;;;;;3.77;44.49;100924.27;108589;1257;71389;-88
2023/12/05 02:59:08;;;;;;;39.50;17.20;;;;;;;3.64;44.54;100923.18;107606;1258;71453;-86
2023/12/05 03:01:39;;;;;;;38.10;18.40;;;;;;;3.63;44.80;100927.86;107626;1260;61797;-89
2023/12/05 03:04:08;;;;;;;41.50;20.70;;;;;;;3.58;44.77;100926.27;107789;1257;60304;-88
2023/12/05 03:06:36;;;;;;;40.50;19.40;;;;;;;3.53;44.84;100929.55;107972;1257;72741;-88
2023/12/05 03:09:05;;;;;;;36.60;17.40;;;;;;;3.47;44.98;100932.48;107768;1257;68807;-88
2023/12/05 03:11:32;;;;;;;41.40;19.30;;;;;;;3.35;45.26;100932.41;107608;1258;72760;-87
2023/12/05 03:14:01;;;;;;;42.50;19.80;;;;;;;3.24;45.76;100935.48;107689;1257;61985;-87
2023/12/05 03:16:29;;;;;;;40.60;19.70;;;;;;;3.32;45.48;100937.96;107657;1257;59168;-89
2023/12/05 03:18:56;;;;;;;35.80;17.20;;;;;;;3.24;45.74;100940.17;107638;1257;74061;-89
2023/12/05 03:21:25;;;;;;;42.60;20.30;;;;;;;3.33;45.78;100945.41;107654;1257;70497;-88
2023/12/05 03:23:53;;;;;;;37.40;19.00;;;;;;;3.40;45.58;100947.20;107814;1261;71413;-88
2023/12/05 03:26:21;;;;;;;35.90;18.20;;;;;;;3.34;45.64;100945.60;107645;1260;60561;-88
2023/12/05 03:28:49;;;;;;;38.70;19.80;;;;;;;3.31;45.84;100946.62;107856;1257;62041;-85
2023/12/05 03:31:18;;;;;;;40.00;19.20;;;;;;;3.23;45.86;100947.43;107742;1257;73791;-88
2023/12/05 03:33:45;;;;;;;39.90;19.00;;;;;;;3.24;45.90;100948.66;107655;1257;69021;-87
2023/12/05 03:36:15;;;;;;;41.80;19.30;;;;;;;3.23;45.85;100949.70;106901;1262;1241217;-89
2023/12/05 03:40:42;;;;;;;40.60;20.90;;;;;;;0.32;53.99;100960.96;104896;1292;599648;-87
2023/12/05 03:43:10;;;;;;;38.40;18.50;;;;;;;1.96;49.05;100953.62;107438;1266;60394;-89
2023/12/05 03:45:37;;;;;;;41.60;20.60;;;;;;;2.25;48.56;100950.46;107402;1265;59031;-86
2023/12/05 03:48:05;;;;;;;42.50;19.50;;;;;;;2.34;48.27;100952.98;107377;1266;70969;-89
2023/12/05 03:50:32;;;;;;;38.60;18.10;;;;;;;2.36;47.97;100957.32;107360;1265;70196;-87
2023/12/05 03:53:00;;;;;;;41.80;20.50;;;;;;;2.35;47.88;100961.32;107678;1260;72735;-87
2023/12/05 03:55:27;;;;;;;34.40;16.80;;;;;;;2.12;48.35;100961.25;106981;1256;1470127;-87
2023/12/05 03:57:55;;;;;;;39.60;19.70;;;;;;;2.24;48.28;100959.98;108169;1255;59954;-89
2023/12/05 04:00:23;;;;;;;41.70;19.80;;;;;;;2.33;47.80;100959.39;108115;1255;70768;-88
2023/12/05 04:02:51;;;;;;;38.10;17.70;;;;;;;2.29;47.74;100956.23;108092;1257;69017;-87
2023/12/05 04:05:18;;;;;;;31.30;15.70;;;;;;;2.17;48.18;100951.59;107870;1257;71133;-88
2023/12/05 04:07:47;;;;;;;41.80;19.20;;;;;;;2.06;48.30;100954.25;107790;1257;60441;-89
2023/12/05 04:10:15;;;;;;;38.30;18.10;;;;;;;2.11;47.96;100956.23;107859;1257;60132;-87
2023/12/05 04:26:36;;;;;;;35.60;16.30;;;;;;;1.95;46.83;100947.38;108964;1257;60596;-87
2023/12/05 04:29:04;;;;;;;33.50;15.60;;;;;;;1.83;47.12;100948.29;108957;1257;59766;-88
2023/12/05 04:31:31;;;;;;;39.90;18.90;;;;;;;1.83;46.89;100947.60;108424;1257;72042;-89
2023/12/05 04:33:59;;;;;;;36.90;17.60;;;;;;;1.72;47.10;100958.02;108010;1257;70359;-89
2023/12/05 04:36:27;;;;;;;47.60;20.80;;;;;;;1.68;47.23;100955.20;108026;1256;72873;-86
2023/12/05 04:38:54;;;;;;;50.90;25.70;;;;;;;1.74;47.31;100953.02;107999;1257;61748;-88
2023/12/05 04:41:22;;;;;;;50.20;25.00;;;;;;;1.80;47.13;100945.12;108029;1257;58758;-87
2023/12/05 04:43:50;;;;;;;55.20;25.60;;;;;;;1.70;47.28;100945.02;108492;1257;71755;-87
2023/12/05 04:46:18;;;;;;;51.30;23.90;;;;;;;1.61;47.63;100947.33;108571;1257;69020;-88
2023/12/05 04:48:46;;;;;;;50.00;23.50;;;;;;;1.49;47.79;100946.83;108459;1257;71687;-89
2023/12/05 04:51:18;;;;;;;48.90;22.20;;;;;;;1.42;47.80;100946.91;108620;1259;60911;-86
2023/12/05 04:53:46;;;;;;;43.90;21.10;;;;;;;1.39;47.82;100942.70;108094;1257;59658;-87
2023/12/05 04:56:14;;;;;;;56.10;25.00;;;;;;;1.40;47.74;100941.17;108096;1257;71860;-88
2023/12/05 04:58:43;;;;;;;53.50;24.10;;;;;;;1.32;47.79;100944.85;108773;1257;69156;-88
2023/12/05 05:01:11;;;;;;;64.40;31.10;;;;;;;1.30;47.91;100951.58;108436;1261;72671;-87
2023/12/05 05:03:51;;;;;;;;;;;;;;;0.93;48.47;100956.56;107950;1257;60459;-88
2023/12/05 05:06:19;;;;;;;60.90;28.50;;;;;;;0.59;49.26;100962.42;108265;1257;58762;-88
2023/12/05 05:08:47;;;;;;;90.80;38.90;;;;;;;0.37;50.01;100962.55;107998;1257;72289;-88
2023/12/05 05:11:14;;;;;;;70.00;31.30;;;;;;;0.52;49.83;100962.66;108040;1258;68757;-87
2023/12/05 05:13:42;;;;;;;61.50;27.60;;;;;;;0.71;49.08;100968.33;107943;1257;71361;-87
2023/12/05 05:16:24;;;;;;;75.20;33.60;;;;;;;0.75;48.95;100967.69;107926;1256;61833;-88
2023/12/05 05:18:52;;;;;;;76.20;31.00;;;;;;;0.63;49.19;100972.34;107906;1256;59102;-88
2023/12/05 05:21:20;;;;;;;77.20;32.60;;;;;;;0.65;49.04;100978.25;107840;1257;73195;-88
2023/12/05 05:23:48;;;;;;;69.00;32.30;;;;;;;0.54;49.20;100979.79;107870;1256;70262;-86
2023/12/05 05:26:16;;;;;;;79.80;33.60;;;;;;;0.44;49.55;100978.91;108173;1254;71262;-87
2023/12/05 05:28:43;;;;;;;91.50;39.20;;;;;;;0.51;49.78;100978.54;108124;1256;61731;-86
2023/12/05 05:31:11;;;;;;;79.30;35.60;;;;;;;0.44;49.76;100986.34;108321;1256;59390;-85
2023/12/05 05:33:38;;;;;;;87.80;35.80;;;;;;;0.37;50.53;100992.46;108334;1256;71790;-86
2023/12/05 05:36:07;;;;;;;82.90;36.90;;;;;;;0.51;50.15;100995.64;108111;1256;69578;-86
2023/12/05 05:38:36;;;;;;;69.10;30.90;;;;;;;0.53;49.94;100991.89;108129;1255;72712;-85
2023/12/05 05:41:06;;;;;;;77.00;33.30;;;;;;;0.60;50.15;100993.71;108180;1256;59581;-87
2023/12/05 05:43:34;;;;;;;72.10;31.60;;;;;;;0.73;49.85;100995.14;108242;1256;60175;-86
2023/12/05 05:46:02;;;;;;;67.10;29.60;;;;;;;0.75;49.72;100991.38;108450;1258;72191;-86
2023/12/05 05:48:31;;;;;;;80.60;33.20;;;;;;;0.76;49.95;100995.04;108797;1254;69055;-87
2023/12/05 05:51:00;;;;;;;68.20;30.30;;;;;;;0.79;49.89;101000.77;108761;1255;71365;-87
2023/12/05 05:53:29;;;;;;;70.20;31.20;;;;;;;0.77;49.84;101011.64;109124;1255;60886;-87
2023/12/05 05:56:00;;;;;;;75.90;32.50;;;;;;;0.46;50.68;101015.07;109014;1254;59829;-87
2023/12/05 05:58:28;;;;;;;68.80;31.60;;;;;;;0.66;50.13;101011.80;109212;1256;71785;-88
2023/12/05 06:00:58;;;;;;;71.40;33.00;;;;;;;0.82;49.79;101010.51;108845;1255;68812;-86
2023/12/05 06:03:30;;;;;;;71.30;33.00;;;;;;;0.82;49.78;101016.55;109118;1254;71695;-88
2023/12/05 06:06:00;;;;;;;77.20;35.30;;;;;;;0.89;49.69;101022.91;109266;1255;60816;-88
2023/12/05 06:08:29;;;;;;;80.20;34.80;;;;;;;0.93;49.66;101018.82;109360;1254;58898;-86
2023/12/05 06:10:59;;;;;;;77.30;33.00;;;;;;;1.01;49.36;101022.06;109449;1254;74117;-89
2023/12/05 06:13:36;;;;;;;87.60;37.10;;;;;;;1.15;49.08;101026.42;109377;1254;69201;-86
2023/12/05 06:16:05;;;;;;;85.70;38.30;;;;;;;1.21;48.94;101030.67;109120;1254;71403;-85
2023/12/05 06:18:34;;;;;;;74.20;34.00;;;;;;;1.31;48.91;101028.41;109196;1255;61252;-89
2023/12/05 06:21:02;;;;;;;99.10;43.60;;;;;;;1.26;49.08;101030.94;109274;1255;58819;-90
2023/12/05 06:23:30;;;;;;;102.70;43.20;;;;;;;1.29;49.02;101031.16;109383;1254;72001;-88
2023/12/05 06:25:57;;;;;;;117.20;46.40;;;;;;;1.34;48.80;101032.96;109211;1254;68795;-89
2023/12/05 06:28:26;;;;;;;129.60;52.30;;;;;;;1.39;48.93;101031.30;109388;1254;71214;-88
2023/12/05 06:30:54;;;;;;;132.20;49.80;;;;;;;1.47;48.74;101035.58;109185;1254;60468;-88
2023/12/05 06:33:21;;;;;;;130.30;52.50;;;;;;;1.55;48.86;101038.46;109101;1254;58979;-88
2023/12/05 06:35:49;;;;;;;129.30;52.30;;;;;;;1.65;48.87;101043.09;109279;1255;71542;-88
2023/12/05 06:38:17;;;;;;;117.30;48.20;;;;;;;1.81;48.48;101047.83;109138;1254;69062;-88
2023/12/05 06:40:45;;;;;;;169.20;63.20;;;;;;;1.73;48.74;101051.16;109121;1256;71407;-88
2023/12/05 06:43:12;;;;;;;153.60;59.00;;;;;;;1.59;48.65;101055.82;109161;1254;60293;-88
2023/12/05 06:45:40;;;;;;;141.50;55.90;;;;;;;1.43;48.63;101058.02;109158;1254;60164;-88
2023/12/05 06:48:08;;;;;;;131.40;53.10;;;;;;;1.55;48.54;101061.98;109114;1255;70662;-89
2023/12/05 06:50:35;;;;;;;132.00;50.70;;;;;;;1.60;48.21;101063.98;109241;1255;69377;-89
2023/12/05 06:53:03;;;;;;;138.40;55.40;;;;;;;1.67;48.41;101062.36;109058;1255;73298;-88
2023/12/05 06:55:31;;;;;;;155.10;56.20;;;;;;;1.82;48.17;101063.08;109391;1254;59769;-88
2023/12/05 06:58:02;;;;;;;134.80;53.60;;;;;;;1.86;48.01;101062.27;109172;1255;58761;-89
2023/12/05 07:00:29;;;;;;;134.40;52.30;;;;;;;1.91;48.19;101060.24;109359;1254;72701;-89
2023/12/05 07:02:57;;;;;;;136.40;52.80;;;;;;;2.01;48.23;101062.45;109302;1255;69093;-89
2023/12/05 07:05:24;;;;;;;121.90;49.20;;;;;;;2.17;48.12;101065.95;109143;1254;71057;-88
2023/12/05 07:07:52;;;;;;;122.60;50.60;;;;;;;2.40;47.95;101059.62;108771;1256;60859;-89
2023/12/05 07:10:20;;;;;;;98.00;42.60;;;;;;;2.56;48.18;101053.23;108034;1254;60746;-88
2023/12/05 07:12:47;;;;;;;112.10;45.50;;;;;;;2.71;48.17;101050.27;108082;1256;73050;-89
2023/12/05 07:15:15;;;;;;;91.50;39.80;;;;;;;2.71;48.02;101047.48;108025;1255;70449;-88
2023/12/05 07:17:46;;;;;;;84.20;38.60;;;;;;;2.85;47.54;101046.23;108107;1260;71818;-87
2023/12/05 07:20:14;;;;;;;81.60;36.10;;;;;;;3.02;47.24;101047.77;108054;1255;60694;-87
2023/12/05 07:22:43;;;;;;;74.80;33.10;;;;;;;3.22;46.39;101044.27;108121;1255;60095;-89
2023/12/05 07:25:11;;;;;;;77.60;35.60;;;;;;;3.30;46.36;101041.55;108104;1255;73052;-87
2023/12/05 07:27:39;;;;;;;74.30;34.60;;;;;;;3.43;46.29;101042.52;107992;1256;69940;-88
2023/12/05 07:30:07;;;;;;;65.10;33.10;;;;;;;3.69;46.47;101040.08;107849;1256;71384;-89
2023/12/05 07:32:35;;;;;;;79.30;38.00;;;;;;;4.03;46.51;101035.38;107981;1256;62199;-89
2023/12/05 07:35:03;;;;;;;72.90;34.10;;;;;;;4.29;46.15;101037.39;107889;1256;59526;-88
2023/12/05 07:37:33;;;;;;;73.40;33.40;;;;;;;4.46;45.86;101035.36;108035;1260;73062;-88
2023/12/05 07:40:06;;;;;;;73.10;35.20;;;;;;;4.57;45.33;101034.86;108300;1256;70651;-88
2023/12/05 07:42:33;;;;;;;90.50;40.20;;;;;;;4.74;45.11;101036.27;107801;1261;72689;-87
2023/12/05 07:45:04;;;;;;;65.90;32.30;;;;;;;4.82;44.91;101042.55;108074;1256;60450;-88
2023/12/05 07:47:32;;;;;;;75.80;35.90;;;;;;;4.89;44.99;101043.61;108013;1255;60104;-88
2023/12/05 07:50:00;;;;;;;65.90;31.70;;;;;;;5.08;44.47;101042.74;107802;1255;71872;-87
2023/12/05 07:52:28;;;;;;;79.60;38.90;;;;;;;5.26;43.76;101051.79;108020;1255;69089;-88
2023/12/05 07:54:56;;;;;;;89.00;40.80;;;;;;;5.39;43.43;101049.87;107836;1255;72973;-89
2023/12/05 07:57:24;;;;;;;74.80;37.30;;;;;;;5.50;43.43;101053.86;108089;1255;61055;-89
2023/12/05 07:59:52;;;;;;;77.60;38.60;;;;;;;5.62;42.68;101054.36;108170;1256;60306;-89
2023/12/05 08:02:21;;;;;;;79.10;37.60;;;;;;;5.68;42.05;101057.31;108593;1256;72437;-88
2023/12/05 08:04:52;;;;;;;77.30;39.20;;;;;;;5.79;42.42;101056.59;109131;1254;68723;-88
2023/12/05 08:07:20;;;;;;;73.50;35.10;;;;;;;5.97;41.95;101056.03;108019;1256;71470;-89
2023/12/05 08:09:47;;;;;;;64.10;32.70;;;;;;;5.97;41.03;101054.13;108121;1255;61264;-89
2023/12/05 08:12:17;;;;;;;73.90;35.10;;;;;;;6.03;40.63;101057.77;108123;1255;60644;-88
2023/12/05 08:14:44;;;;;;;69.90;32.80;;;;;;;5.88;40.23;101061.80;108152;1258;76211;-89
2023/12/05 08:17:13;;;;;;;73.80;35.50;;;;;;;5.82;40.34;101062.52;107946;1256;69160;-88
2023/12/05 08:19:53;;;;;;;72.30;35.60;;;;;;;5.81;40.35;101063.73;108063;1254;72806;-88
2023/12/05 08:22:21;;;;;;;78.30;37.50;;;;;;;5.69;40.08;101063.23;107951;1255;60848;-89
2023/12/05 08:24:50;;;;;;;82.60;38.90;;;;;;;5.75;40.60;101067.41;108002;1255;61563;-88
2023/12/05 08:27:18;;;;;;;85.00;39.70;;;;;;;5.86;40.50;101065.11;108266;1254;75990;-89
2023/12/05 08:29:45;;;;;;;91.50;40.20;;;;;;;6.11;40.34;101064.88;108202;1254;69219;-86
2023/12/05 08:32:13;;;;;;;91.70;42.80;;;;;;;6.46;40.33;101057.92;107786;1255;72648;-88
2023/12/05 08:34:40;;;;;;;87.30;39.80;;;;;;;6.67;39.83;101049.60;107889;1255;60981;-87
2023/12/05 08:37:08;;;;;;;71.70;35.00;;;;;;;6.91;39.71;101056.42;107733;1255;60054;-87
2023/12/05 08:39:36;;;;;;;71.70;33.60;;;;;;;7.12;39.42;101050.69;108026;1255;74600;-89
2023/12/05 08:42:04;;;;;;;67.90;32.30;;;;;;;7.26;38.89;101048.46;107974;1255;70870;-88
2023/12/05 08:44:31;;;;;;;73.20;33.40;;;;;;;7.43;38.80;101047.10;107778;1255;71718;-88
2023/12/05 08:46:59;;;;;;;62.80;33.10;;;;;;;7.49;38.15;101044.41;107935;1255;60502;-89
2023/12/05 08:49:27;;;;;;;75.30;33.50;;;;;;;7.63;37.84;101044.10;107918;1255;60349;-89
2023/12/05 08:51:55;;;;;;;68.00;32.70;;;;;;;7.75;38.22;101040.48;107962;1257;73807;-89
2023/12/05 08:54:22;;;;;;;65.90;32.70;;;;;;;7.69;37.48;101040.02;107906;1256;70376;-89
2023/12/05 08:56:50;;;;;;;65.80;32.80;;;;;;;7.73;37.56;101040.67;107787;1255;73267;-89
2023/12/05 08:59:20;;;;;;;68.80;33.40;;;;;;;7.68;37.64;101038.80;107776;1255;61047;-89
2023/12/05 09:01:48;;;;;;;62.10;30.80;;;;;;;7.55;37.40;101034.21;108081;1254;60399;-88
2023/12/05 09:04:15;;;;;;;73.50;33.90;;;;;;;7.57;37.67;101032.10;108011;1254;75021;-88
2023/12/05 09:06:46;;;;;;;66.60;33.00;;;;;;;7.59;37.51;101030.16;108571;1256;69261;-87
2023/12/05 09:09:16;;;;;;;64.70;33.20;;;;;;;7.47;37.69;101029.75;108586;1255;70829;-88
2023/12/05 09:11:45;;;;;;;72.80;34.90;;;;;;;7.65;37.65;101025.90;108380;1255;60448;-87
2023/12/05 09:14:12;;;;;;;65.90;33.30;;;;;;;7.88;37.34;101024.06;108538;1256;58766;-88
2023/12/05 09:16:40;;;;;;;73.70;34.50;;;;;;;8.23;37.57;101016.64;109054;1255;72614;-88
2023/12/05 09:19:08;;;;;;;67.80;32.80;;;;;;;8.27;37.67;101012.74;108586;1255;68777;-87
2023/12/05 09:21:36;;;;;;;71.60;33.60;;;;;;;8.31;37.11;101007.45;108787;1254;70782;-88
2023/12/05 09:24:05;;;;;;;79.50;35.70;;;;;;;8.48;37.25;101004.60;108668;1254;61025;-88
2023/12/05 09:26:33;;;;;;;60.80;30.20;;;;;;;8.70;36.92;100999.91;108590;1256;60301;-88
2023/12/05 09:29:00;;;;;;;76.30;34.20;;;;;;;8.99;37.33;100999.27;109085;1255;72618;-89
2023/12/05 09:31:28;;;;;;;64.50;30.60;;;;;;;9.31;36.85;101003.46;109082;1256;67758;-88
2023/12/05 09:33:56;;;;;;;61.80;30.10;;;;;;;9.62;36.13;101008.14;109136;1255;71095;-90
2023/12/05 09:36:24;;;;;;;66.60;30.70;;;;;;;9.67;35.21;101007.34;109234;1254;59407;-87
2023/12/05 09:38:51;;;;;;;71.90;33.90;;;;;;;9.68;34.98;101007.31;109032;1256;58790;-87
2023/12/05 09:41:19;;;;;;;89.00;41.60;;;;;;;9.73;34.90;101006.86;108162;1256;73778;-88
2023/12/05 09:43:51;;;;;;;72.00;35.70;;;;;;;9.61;34.91;101000.62;108019;1256;72127;-88
2023/12/05 09:46:22;;;;;;;61.70;29.90;;;;;;;9.59;34.84;100997.68;108053;1255;73687;-89
2023/12/05 09:48:54;;;;;;;57.40;27.90;;;;;;;9.76;35.28;100992.95;108015;1256;60563;-89
2023/12/05 09:51:22;;;;;;;54.20;28.40;;;;;;;9.98;34.82;100991.80;107894;1255;60339;-88
2023/12/05 09:53:50;;;;;;;52.60;26.60;;;;;;;10.16;34.81;100984.23;108147;1254;75991;-88
2023/12/05 09:56:18;;;;;;;56.40;29.90;;;;;;;10.41;34.54;100983.91;108082;1256;72873;-89
2023/12/05 09:58:45;;;;;;;56.80;29.80;;;;;;;10.52;34.09;100982.24;108595;1256;71907;-89
2023/12/05 10:01:17;;;;;;;61.10;31.80;;;;;;;10.70;34.05;100982.87;108840;1255;59805;-88
2023/12/05 10:03:44;;;;;;;59.20;32.10;;;;;;;10.94;33.99;100976.14;108739;1254;60309;-88
2023/12/05 10:06:13;;;;;;;54.20;28.70;;;;;;;11.23;33.93;100978.38;109096;1254;72374;-89
2023/12/05 10:08:42;;;;;;;50.70;28.30;;;;;;;11.60;33.23;100973.87;109356;1255;70528;-87
2023/12/05 10:11:09;;;;;;;52.20;27.50;;;;;;;11.90;32.78;100968.65;108964;1254;71466;-89
2023/12/05 10:13:41;;;;;;;53.20;28.90;;;;;;;11.98;31.76;100966.48;107828;1256;60344;-87
2023/12/05 10:16:08;;;;;;;54.50;29.00;;;;;;;12.14;32.12;100972.00;107865;1256;59614;-87
2023/12/05 10:18:36;;;;;;;60.40;30.80;;;;;;;12.44;31.85;100971.27;107961;1254;73825;-85
2023/12/05 10:21:05;;;;;;;59.50;29.00;;;;;;;12.58;31.41;100971.88;107983;1254;68872;-89
2023/12/05 10:23:33;;;;;;;47.60;27.60;;;;;;;12.81;31.58;100973.92;108491;1256;72692;-89
2023/12/05 10:26:00;;;;;;;53.70;28.70;;;;;;;13.12;31.08;100975.20;108009;1256;60219;-89
2023/12/05 10:28:28;;;;;;;62.80;32.80;;;;;;;13.18;30.48;100977.10;108031;1255;60203;-89
2023/12/05 10:30:57;;;;;;;57.10;29.50;;;;;;;13.12;30.37;100979.95;108027;1256;73816;-90
2023/12/05 10:33:26;;;;;;;62.30;29.40;;;;;;;12.91;30.37;100981.20;108087;1255;70708;-88
2023/12/05 10:35:57;;;;;;;63.70;29.70;;;;;;;12.65;30.24;100980.63;108117;1256;73643;-89
2023/12/05 10:38:25;;;;;;;52.20;28.00;;;;;;;12.15;30.32;100977.09;107933;1256;60384;-87
2023/12/05 10:40:57;;;;;;;60.60;30.80;;;;;;;11.85;30.75;100975.13;108615;1254;59855;-89
2023/12/05 10:43:26;;;;;;;57.00;29.70;;;;;;;11.34;31.13;100971.58;109087;1255;74331;-89
2023/12/05 10:45:57;;;;;;;56.30;30.50;;;;;;;11.11;31.80;100969.39;108997;1256;71299;-90
2023/12/05 10:48:25;;;;;;;59.70;29.90;;;;;;;11.05;32.28;100964.80;109178;1254;73756;-87
2023/12/05 10:50:55;;;;;;;52.90;27.80;;;;;;;10.99;32.22;100964.25;108760;1255;60275;-90
2023/12/05 10:53:26;;;;;;;54.70;28.90;;;;;;;10.66;32.13;100965.42;108076;1256;60626;-89
2023/12/05 10:55:54;;;;;;;53.90;27.80;;;;;;;10.30;32.89;100965.19;108001;1254;74080;-90
2023/12/05 10:58:21;;;;;;;59.30;29.40;;;;;;;10.22;33.23;100964.80;108118;1255;70082;-89
2023/12/05 11:00:49;;;;;;;52.90;28.40;;;;;;;10.25;33.22;100958.44;107948;1255;74840;-88
2023/12/05 11:03:17;;;;;;;55.40;28.90;;;;;;;10.21;33.31;100956.77;107903;1256;61329;-86
2023/12/05 11:05:44;;;;;;;49.00;26.50;;;;;;;10.25;33.37;100954.73;108121;1255;60596;-90
2023/12/05 11:08:12;;;;;;;58.40;29.20;;;;;;;10.24;33.67;100956.16;108014;1256;74408;-90
2023/12/05 11:10:39;;;;;;;47.20;23.60;;;;;;;10.25;33.71;100959.29;107993;1255;70767;-88
2023/12/05 11:13:07;;;;;;;48.30;25.70;;;;;;;9.94;33.71;100960.48;107922;1256;72585;-89
2023/12/05 11:15:38;;;;;;;46.70;25.90;;;;;;;9.62;34.17;100961.33;107909;1255;60504;-89
2023/12/05 11:18:09;;;;;;;;;;;;;;;9.30;34.35;100958.08;108025;1256;60320;-88
2023/12/05 11:20:55;;;;;;;51.10;25.90;;;;;;;9.23;34.79;100961.02;108109;1255;72638;-90
2023/12/05 11:23:36;;;;;;;46.00;25.90;;;;;;;9.04;34.86;100957.30;108137;1255;70075;-90
2023/12/05 11:26:26;;;;;;;45.70;24.50;;;;;;;8.95;34.93;100948.36;108375;1255;72617;-89
2023/12/05 11:29:42;;;;;;;48.30;24.80;;;;;;;8.79;35.36;100941.29;108263;1254;60330;-89
2023/12/05 11:32:24;;;;;;;55.90;29.50;;;;;;;8.74;35.63;100944.00;108391;1255;61216;-90
2023/12/05 11:35:22;;;;;;;53.60;27.70;;;;;;;8.68;35.79;100943.22;108292;1256;76005;-89